sensor_id;sensor_type;location;lat;lon;timestamp;pressure;altitude;pressure_sealevel;temperature;humidity
69405;BME280;57084;52.046;5.632;2022-12-29T00:00:00;99910;;;10.8;79.8
69405;BME280;57084;52.046;5.632;2022-12-29T00:01:00;99910;;;10.9;79.8
69405;BME280;57084;52.046;5.632;2022-12-29T00:02:00;99910;;;10.9;79.8
69405;BME280;57084;52.046;5.632;2022-12-29T00:03:00;99910;;;10.9;79.8
69405;BME280;57084;52.046;5.632;2022-12-29T00:04:00;99910;;;10.9;79.8
69405;BME280;57084;52.046;5.632;2022-12-29T00:05:00;99900;;;10.9;79.8
69405;BME280;57084;52.046;5.632;2022-12-29T00:06:00;99900;;;10.9;79.8
69405;BME280;57084;52.046;5.632;2022-12-29T00:07:00;99900;;;10.9;79.8
69405;BME280;57084;52.046;5.632;2022-12-29T00:08:00;99900;;;10.9;79.8
69405;BME280;57084;52.046;5.632;2022-12-29T00:09:00;99900;;;10.9;79.8
69405;BME280;57084;52.046;5.632;2022-12-29T00:10:00;99900;;;10.9;79.8
69405;BME280;57084;52.046;5.632;2022-12-29T00:11:00;99890;;;10.9;79.7
69405;BME280;57084;52.046;5.632;2022-12-29T00:12:00;99890;;;10.9;79.7
69405;BME280;57084;52.046;5.632;2022-12-29T00:13:00;99890;;;10.9;79.7
69405;BME280;57084;52.046;5.632;2022-12-29T00:14:00;99890;;;10.9;79.7
69405;BME280;57084;52.046;5.632;2022-12-29T00:15:00;99890;;;10.9;79.7
69405;BME280;57084;52.046;5.632;2022-12-29T00:16:00;99890;;;10.9;79.7
69405;BME280;57084;52.046;5.632;2022-12-29T00:17:00;99880;;;10.9;79.6
69405;BME280;57084;52.046;5.632;2022-12-29T00:18:00;99880;;;10.9;79.6
69405;BME280;57084;52.046;5.632;2022-12-29T00:19:00;99880;;;10.9;79.6
69405;BME280;57084;52.046;5.632;2022-12-29T00:20:00;99880;;;10.9;79.6
69405;BME280;57084;52.046;5.632;2022-12-29T00:21:00;99880;;;11.0;79.5
69405;BME280;57084;52.046;5.632;2022-12-29T00:22:00;99880;;;11.0;79.5
69405;BME280;57084;52.046;5.632;2022-12-29T00:23:00;99880;;;10.9;79.6
69405;BME280;57084;52.046;5.632;2022-12-29T00:24:00;99880;;;10.9;79.6
69405;BME280;57084;52.046;5.632;2022-12-29T00:25:00;99870;;;10.9;79.6
69405;BME280;57084;52.046;5.632;2022-12-29T00:26:02;99870;;;10.9;79.6
69405;BME280;57084;52.046;5.632;2022-12-29T00:27:08;99860;;;10.9;79.6
69405;BME280;57084;52.046;5.632;2022-12-29T00:28:00;99860;;;10.9;79.6
69405;BME280;57084;52.046;5.632;2022-12-29T00:29:00;99870;;;11.0;79.6
69405;BME280;57084;52.046;5.632;2022-12-29T00:30:00;99870;;;11.0;79.6
69405;BME280;57084;52.046;5.632;2022-12-29T00:31:00;99870;;;11.0;79.5
69405;BME280;57084;52.046;5.632;2022-12-29T00:32:00;99870;;;11.0;79.5
69405;BME280;57084;52.046;5.632;2022-12-29T00:33:00;99870;;;11.0;79.5
69405;BME280;57084;52.046;5.632;2022-12-29T00:34:00;99870;;;11.0;79.5
69405;BME280;57084;52.046;5.632;2022-12-29T00:35:00;99870;;;11.0;79.5
69405;BME280;57084;52.046;5.632;2022-12-29T00:36:00;99870;;;11.0;79.5
69405;BME280;57084;52.046;5.632;2022-12-29T00:37:00;99870;;;11.0;79.5
69405;BME280;57084;52.046;5.632;2022-12-29T00:38:01;99870;;;11.0;79.5
69405;BME280;57084;52.046;5.632;2022-12-29T00:39:00;99870;;;11.0;79.5
69405;BME280;57084;52.046;5.632;2022-12-29T00:40:00;99870;;;11.0;79.5
69405;BME280;57084;52.046;5.632;2022-12-29T00:41:00;99870;;;11.0;79.4
69405;BME280;57084;52.046;5.632;2022-12-29T00:42:02;99870;;;11.0;79.4
69405;BME280;57084;52.046;5.632;2022-12-29T00:43:00;99860;;;11.0;79.4
69405;BME280;57084;52.046;5.632;2022-12-29T00:44:00;99860;;;11.0;79.4
69405;BME280;57084;52.046;5.632;2022-12-29T00:45:00;99850;;;11.0;79.4
69405;BME280;57084;52.046;5.632;2022-12-29T00:46:00;99850;;;11.0;79.4
69405;BME280;57084;52.046;5.632;2022-12-29T00:47:00;99850;;;11.0;79.4
69405;BME280;57084;52.046;5.632;2022-12-29T00:48:00;99850;;;11.0;79.4
69405;BME280;57084;52.046;5.632;2022-12-29T00:49:00;99840;;;11.0;79.4
69405;BME280;57084;52.046;5.632;2022-12-29T00:50:00;99840;;;11.0;79.4
69405;BME280;57084;52.046;5.632;2022-12-29T00:51:00;99830;;;11.0;79.3
69405;BME280;57084;52.046;5.632;2022-12-29T00:52:01;99830;;;11.0;79.3
69405;BME280;57084;52.046;5.632;2022-12-29T00:53:00;99830;;;11.0;79.3
69405;BME280;57084;52.046;5.632;2022-12-29T00:54:00;99830;;;11.0;79.3
69405;BME280;57084;52.046;5.632;2022-12-29T00:55:00;99830;;;11.0;79.3
69405;BME280;57084;52.046;5.632;2022-12-29T00:56:00;99830;;;11.0;79.3
69405;BME280;57084;52.046;5.632;2022-12-29T00:57:00;99820;;;11.0;79.3
69405;BME280;57084;52.046;5.632;2022-12-29T00:58:00;99820;;;11.0;79.3
69405;BME280;57084;52.046;5.632;2022-12-29T00:59:00;99820;;;11.0;79.3
69405;BME280;57084;52.046;5.632;2022-12-29T01:00:00;99820;;;11.0;79.3
69405;BME280;57084;52.046;5.632;2022-12-29T01:01:00;99820;;;11.0;79.2
69405;BME280;57084;52.046;5.632;2022-12-29T01:02:00;99820;;;11.0;79.2
69405;BME280;57084;52.046;5.632;2022-12-29T01:03:00;99820;;;11.0;79.2
69405;BME280;57084;52.046;5.632;2022-12-29T01:04:00;99820;;;11.0;79.2
69405;BME280;57084;52.046;5.632;2022-12-29T01:05:00;99810;;;11.0;79.2
69405;BME280;57084;52.046;5.632;2022-12-29T01:06:00;99810;;;11.0;79.2
69405;BME280;57084;52.046;5.632;2022-12-29T01:07:00;99800;;;11.0;79.2
69405;BME280;57084;52.046;5.632;2022-12-29T01:08:00;99800;;;11.0;79.2
69405;BME280;57084;52.046;5.632;2022-12-29T01:09:00;99810;;;11.0;79.2
69405;BME280;57084;52.046;5.632;2022-12-29T01:10:00;99810;;;11.0;79.2
69405;BME280;57084;52.046;5.632;2022-12-29T01:11:00;99810;;;11.0;79.2
69405;BME280;57084;52.046;5.632;2022-12-29T01:12:00;99810;;;11.0;79.2
69405;BME280;57084;52.046;5.632;2022-12-29T01:13:00;99800;;;11.0;79.2
69405;BME280;57084;52.046;5.632;2022-12-29T01:14:00;99800;;;11.0;79.2
69405;BME280;57084;52.046;5.632;2022-12-29T01:15:00;99800;;;11.0;79.2
69405;BME280;57084;52.046;5.632;2022-12-29T01:16:00;99800;;;11.0;79.2
69405;BME280;57084;52.046;5.632;2022-12-29T01:17:00;99790;;;11.0;79.1
69405;BME280;57084;52.046;5.632;2022-12-29T01:18:00;99790;;;11.0;79.1
69405;BME280;57084;52.046;5.632;2022-12-29T01:19:00;99790;;;11.0;79.1
69405;BME280;57084;52.046;5.632;2022-12-29T01:20:00;99790;;;11.0;79.1
69405;BME280;57084;52.046;5.632;2022-12-29T01:21:00;99800;;;11.1;79.1
69405;BME280;57084;52.046;5.632;2022-12-29T01:22:00;99800;;;11.1;79.1
69405;BME280;57084;52.046;5.632;2022-12-29T01:23:00;99790;;;11.0;79.1
69405;BME280;57084;52.046;5.632;2022-12-29T01:24:00;99790;;;11.0;79.1
69405;BME280;57084;52.046;5.632;2022-12-29T01:25:00;99790;;;11.1;79.0
69405;BME280;57084;52.046;5.632;2022-12-29T01:26:07;99790;;;11.1;79.0
69405;BME280;57084;52.046;5.632;2022-12-29T01:27:00;99800;;;11.1;79.0
69405;BME280;57084;52.046;5.632;2022-12-29T01:28:00;99800;;;11.1;79.0
69405;BME280;57084;52.046;5.632;2022-12-29T01:29:00;99800;;;11.1;79.0
69405;BME280;57084;52.046;5.632;2022-12-29T01:30:00;99800;;;11.1;79.0
69405;BME280;57084;52.046;5.632;2022-12-29T01:31:00;99800;;;11.1;79.0
69405;BME280;57084;52.046;5.632;2022-12-29T01:32:00;99800;;;11.1;79.0
69405;BME280;57084;52.046;5.632;2022-12-29T01:33:00;99800;;;11.1;79.0
69405;BME280;57084;52.046;5.632;2022-12-29T01:34:00;99800;;;11.1;79.0
69405;BME280;57084;52.046;5.632;2022-12-29T01:35:00;99790;;;11.1;79.0
69405;BME280;57084;52.046;5.632;2022-12-29T01:36:00;99790;;;11.1;79.0
69405;BME280;57084;52.046;5.632;2022-12-29T01:37:00;99780;;;11.1;78.9
69405;BME280;57084;52.046;5.632;2022-12-29T01:38:00;99780;;;11.1;78.9
69405;BME280;57084;52.046;5.632;2022-12-29T01:39:00;99790;;;11.1;79.0
69405;BME280;57084;52.046;5.632;2022-12-29T01:40:00;99790;;;11.1;79.0
69405;BME280;57084;52.046;5.632;2022-12-29T01:41:00;99780;;;11.1;79.0
69405;BME280;57084;52.046;5.632;2022-12-29T01:42:00;99780;;;11.1;79.0
69405;BME280;57084;52.046;5.632;2022-12-29T01:43:00;99780;;;11.1;79.0
69405;BME280;57084;52.046;5.632;2022-12-29T01:44:00;99780;;;11.1;79.0
69405;BME280;57084;52.046;5.632;2022-12-29T01:45:00;99780;;;11.1;79.0
69405;BME280;57084;52.046;5.632;2022-12-29T01:46:00;99780;;;11.1;79.0
69405;BME280;57084;52.046;5.632;2022-12-29T01:47:00;99780;;;11.1;79.0
69405;BME280;57084;52.046;5.632;2022-12-29T01:48:00;99780;;;11.1;79.0
69405;BME280;57084;52.046;5.632;2022-12-29T01:49:03;99780;;;11.1;79.0
69405;BME280;57084;52.046;5.632;2022-12-29T01:50:01;99780;;;11.1;79.0
69405;BME280;57084;52.046;5.632;2022-12-29T01:51:00;99780;;;11.1;79.0
69405;BME280;57084;52.046;5.632;2022-12-29T01:52:01;99780;;;11.1;79.0
69405;BME280;57084;52.046;5.632;2022-12-29T01:53:01;99780;;;11.1;79.1
69405;BME280;57084;52.046;5.632;2022-12-29T01:54:00;99780;;;11.1;79.1
69405;BME280;57084;52.046;5.632;2022-12-29T01:55:00;99770;;;11.1;79.1
69405;BME280;57084;52.046;5.632;2022-12-29T01:56:01;99770;;;11.1;79.1
69405;BME280;57084;52.046;5.632;2022-12-29T01:57:00;99770;;;11.1;79.0
69405;BME280;57084;52.046;5.632;2022-12-29T01:58:00;99770;;;11.1;79.0
69405;BME280;57084;52.046;5.632;2022-12-29T01:59:01;99780;;;11.0;79.2
69405;BME280;57084;52.046;5.632;2022-12-29T02:00:02;99780;;;11.0;79.2
69405;BME280;57084;52.046;5.632;2022-12-29T02:01:00;99780;;;11.0;79.1
69405;BME280;57084;52.046;5.632;2022-12-29T02:02:00;99780;;;11.0;79.1
69405;BME280;57084;52.046;5.632;2022-12-29T02:03:00;99790;;;11.0;79.2
69405;BME280;57084;52.046;5.632;2022-12-29T02:04:00;99790;;;11.0;79.2
69405;BME280;57084;52.046;5.632;2022-12-29T02:05:01;99800;;;11.0;79.2
69405;BME280;57084;52.046;5.632;2022-12-29T02:06:01;99800;;;11.0;79.2
69405;BME280;57084;52.046;5.632;2022-12-29T02:07:00;99790;;;11.0;79.2
69405;BME280;57084;52.046;5.632;2022-12-29T02:08:00;99790;;;11.0;79.2
69405;BME280;57084;52.046;5.632;2022-12-29T02:09:00;99790;;;11.0;79.3
69405;BME280;57084;52.046;5.632;2022-12-29T02:10:00;99790;;;11.0;79.3
69405;BME280;57084;52.046;5.632;2022-12-29T02:11:00;99790;;;11.0;79.3
69405;BME280;57084;52.046;5.632;2022-12-29T02:12:00;99790;;;11.0;79.3
69405;BME280;57084;52.046;5.632;2022-12-29T02:13:00;99800;;;11.0;79.3
69405;BME280;57084;52.046;5.632;2022-12-29T02:14:00;99800;;;11.0;79.3
69405;BME280;57084;52.046;5.632;2022-12-29T02:15:00;99810;;;11.0;79.3
69405;BME280;57084;52.046;5.632;2022-12-29T02:16:02;99810;;;11.0;79.3
69405;BME280;57084;52.046;5.632;2022-12-29T02:17:03;99800;;;11.0;79.3
69405;BME280;57084;52.046;5.632;2022-12-29T02:18:03;99800;;;11.0;79.3
69405;BME280;57084;52.046;5.632;2022-12-29T02:19:05;99800;;;11.0;79.4
69405;BME280;57084;52.046;5.632;2022-12-29T02:22:02;99790;;;11.0;79.4
69405;BME280;57084;52.046;5.632;2022-12-29T02:23:04;99790;;;11.0;79.4
69405;BME280;57084;52.046;5.632;2022-12-29T02:24:05;99790;;;11.0;79.4
69405;BME280;57084;52.046;5.632;2022-12-29T02:25:04;99790;;;11.0;79.4
69405;BME280;57084;52.046;5.632;2022-12-29T02:26:06;99790;;;11.0;79.4
69405;BME280;57084;52.046;5.632;2022-12-29T02:27:04;99800;;;11.0;79.3
69405;BME280;57084;52.046;5.632;2022-12-29T02:28:06;99800;;;11.0;79.3
69405;BME280;57084;52.046;5.632;2022-12-29T02:29:08;99790;;;11.0;79.4
69405;BME280;57084;52.046;5.632;2022-12-29T02:30:03;99790;;;11.0;79.4
69405;BME280;57084;52.046;5.632;2022-12-29T02:31:02;99780;;;11.0;79.4
69405;BME280;57084;52.046;5.632;2022-12-29T02:32:01;99780;;;11.0;79.4
69405;BME280;57084;52.046;5.632;2022-12-29T02:33:01;99770;;;11.0;79.3
69405;BME280;57084;52.046;5.632;2022-12-29T02:34:02;99770;;;11.0;79.3
69405;BME280;57084;52.046;5.632;2022-12-29T02:35:01;99780;;;11.0;79.3
69405;BME280;57084;52.046;5.632;2022-12-29T02:36:01;99780;;;11.0;79.3
69405;BME280;57084;52.046;5.632;2022-12-29T02:37:02;99780;;;11.1;79.2
69405;BME280;57084;52.046;5.632;2022-12-29T02:38:03;99780;;;11.1;79.2
69405;BME280;57084;52.046;5.632;2022-12-29T02:39:02;99790;;;11.1;79.3
69405;BME280;57084;52.046;5.632;2022-12-29T02:40:01;99790;;;11.1;79.3
69405;BME280;57084;52.046;5.632;2022-12-29T02:41:02;99780;;;11.0;79.2
69405;BME280;57084;52.046;5.632;2022-12-29T02:42:03;99780;;;11.0;79.2
69405;BME280;57084;52.046;5.632;2022-12-29T02:43:01;99790;;;11.1;79.2
69405;BME280;57084;52.046;5.632;2022-12-29T02:44:02;99790;;;11.1;79.2
69405;BME280;57084;52.046;5.632;2022-12-29T02:45:02;99780;;;11.1;79.2
69405;BME280;57084;52.046;5.632;2022-12-29T02:46:02;99780;;;11.1;79.2
69405;BME280;57084;52.046;5.632;2022-12-29T02:47:00;99790;;;11.1;79.1
69405;BME280;57084;52.046;5.632;2022-12-29T02:48:02;99790;;;11.1;79.1
69405;BME280;57084;52.046;5.632;2022-12-29T02:49:01;99790;;;11.1;79.1
69405;BME280;57084;52.046;5.632;2022-12-29T02:50:01;99790;;;11.1;79.1
69405;BME280;57084;52.046;5.632;2022-12-29T02:51:02;99800;;;11.1;79.1
69405;BME280;57084;52.046;5.632;2022-12-29T02:52:01;99800;;;11.1;79.1
69405;BME280;57084;52.046;5.632;2022-12-29T02:53:01;99800;;;11.1;79.0
69405;BME280;57084;52.046;5.632;2022-12-29T02:54:00;99800;;;11.1;79.0
69405;BME280;57084;52.046;5.632;2022-12-29T02:55:00;99800;;;11.1;79.0
69405;BME280;57084;52.046;5.632;2022-12-29T02:56:00;99800;;;11.1;79.0
69405;BME280;57084;52.046;5.632;2022-12-29T02:57:00;99790;;;11.1;78.9
69405;BME280;57084;52.046;5.632;2022-12-29T02:58:16;99790;;;11.1;78.9
69405;BME280;57084;52.046;5.632;2022-12-29T02:59:00;99800;;;11.1;78.9
69405;BME280;57084;52.046;5.632;2022-12-29T03:00:01;99800;;;11.1;78.9
69405;BME280;57084;52.046;5.632;2022-12-29T03:01:05;99790;;;11.1;78.9
69405;BME280;57084;52.046;5.632;2022-12-29T03:02:05;99790;;;11.1;78.9
69405;BME280;57084;52.046;5.632;2022-12-29T03:03:06;99790;;;11.1;78.8
69405;BME280;57084;52.046;5.632;2022-12-29T03:04:03;99790;;;11.1;78.8
69405;BME280;57084;52.046;5.632;2022-12-29T03:05:05;99780;;;11.1;78.8
69405;BME280;57084;52.046;5.632;2022-12-29T03:06:04;99780;;;11.1;78.8
69405;BME280;57084;52.046;5.632;2022-12-29T03:07:01;99790;;;11.1;78.8
69405;BME280;57084;52.046;5.632;2022-12-29T03:08:01;99790;;;11.1;78.8
69405;BME280;57084;52.046;5.632;2022-12-29T03:09:01;99770;;;11.1;78.8
69405;BME280;57084;52.046;5.632;2022-12-29T03:10:01;99770;;;11.1;78.8
69405;BME280;57084;52.046;5.632;2022-12-29T03:11:01;99770;;;11.1;78.8
69405;BME280;57084;52.046;5.632;2022-12-29T03:12:02;99770;;;11.1;78.8
69405;BME280;57084;52.046;5.632;2022-12-29T03:13:01;99770;;;11.1;78.8
69405;BME280;57084;52.046;5.632;2022-12-29T03:14:02;99770;;;11.1;78.8
69405;BME280;57084;52.046;5.632;2022-12-29T03:15:02;99770;;;11.1;78.8
69405;BME280;57084;52.046;5.632;2022-12-29T03:16:01;99770;;;11.1;78.8
69405;BME280;57084;52.046;5.632;2022-12-29T03:17:00;99780;;;11.1;78.8
69405;BME280;57084;52.046;5.632;2022-12-29T03:18:02;99780;;;11.1;78.8
69405;BME280;57084;52.046;5.632;2022-12-29T03:19:00;99770;;;11.1;78.8
69405;BME280;57084;52.046;5.632;2022-12-29T03:20:01;99770;;;11.1;78.8
69405;BME280;57084;52.046;5.632;2022-12-29T03:21:00;99770;;;11.1;78.8
69405;BME280;57084;52.046;5.632;2022-12-29T03:22:00;99770;;;11.1;78.8
69405;BME280;57084;52.046;5.632;2022-12-29T03:23:00;99780;;;11.1;78.8
69405;BME280;57084;52.046;5.632;2022-12-29T03:24:00;99780;;;11.1;78.8
69405;BME280;57084;52.046;5.632;2022-12-29T03:25:01;99770;;;11.1;78.8
69405;BME280;57084;52.046;5.632;2022-12-29T03:26:01;99770;;;11.1;78.8
69405;BME280;57084;52.046;5.632;2022-12-29T03:27:01;99770;;;11.1;78.8
69405;BME280;57084;52.046;5.632;2022-12-29T03:28:00;99770;;;11.1;78.8
69405;BME280;57084;52.046;5.632;2022-12-29T03:29:00;99770;;;11.1;78.7
69405;BME280;57084;52.046;5.632;2022-12-29T03:30:01;99770;;;11.1;78.7
69405;BME280;57084;52.046;5.632;2022-12-29T03:31:00;99760;;;11.1;78.7
69405;BME280;57084;52.046;5.632;2022-12-29T03:32:00;99760;;;11.1;78.7
69405;BME280;57084;52.046;5.632;2022-12-29T03:33:00;99770;;;11.1;78.6
69405;BME280;57084;52.046;5.632;2022-12-29T03:34:00;99770;;;11.1;78.6
69405;BME280;57084;52.046;5.632;2022-12-29T03:35:00;99770;;;11.1;78.7
69405;BME280;57084;52.046;5.632;2022-12-29T03:36:02;99770;;;11.1;78.7
69405;BME280;57084;52.046;5.632;2022-12-29T03:37:00;99770;;;11.1;78.6
69405;BME280;57084;52.046;5.632;2022-12-29T03:38:02;99770;;;11.1;78.6
69405;BME280;57084;52.046;5.632;2022-12-29T03:39:01;99760;;;11.1;78.6
69405;BME280;57084;52.046;5.632;2022-12-29T03:40:00;99760;;;11.1;78.6
69405;BME280;57084;52.046;5.632;2022-12-29T03:41:00;99760;;;11.1;78.6
69405;BME280;57084;52.046;5.632;2022-12-29T03:42:01;99760;;;11.1;78.6
69405;BME280;57084;52.046;5.632;2022-12-29T03:43:00;99760;;;11.1;78.5
69405;BME280;57084;52.046;5.632;2022-12-29T03:44:00;99760;;;11.1;78.5
69405;BME280;57084;52.046;5.632;2022-12-29T03:45:00;99760;;;11.1;78.5
69405;BME280;57084;52.046;5.632;2022-12-29T03:46:00;99760;;;11.1;78.5
69405;BME280;57084;52.046;5.632;2022-12-29T03:47:00;99760;;;11.1;78.5
69405;BME280;57084;52.046;5.632;2022-12-29T03:48:00;99760;;;11.1;78.5
69405;BME280;57084;52.046;5.632;2022-12-29T03:49:00;99750;;;11.1;78.4
69405;BME280;57084;52.046;5.632;2022-12-29T03:50:00;99750;;;11.1;78.4
69405;BME280;57084;52.046;5.632;2022-12-29T03:51:00;99760;;;11.1;78.4
69405;BME280;57084;52.046;5.632;2022-12-29T03:52:00;99760;;;11.1;78.4
69405;BME280;57084;52.046;5.632;2022-12-29T03:53:00;99750;;;11.1;78.2
69405;BME280;57084;52.046;5.632;2022-12-29T03:54:00;99750;;;11.1;78.2
69405;BME280;57084;52.046;5.632;2022-12-29T03:55:00;99750;;;11.1;78.3
69405;BME280;57084;52.046;5.632;2022-12-29T03:56:00;99750;;;11.1;78.3
69405;BME280;57084;52.046;5.632;2022-12-29T03:57:00;99750;;;11.1;78.3
69405;BME280;57084;52.046;5.632;2022-12-29T03:58:00;99750;;;11.1;78.3
69405;BME280;57084;52.046;5.632;2022-12-29T03:59:00;99750;;;11.1;78.2
69405;BME280;57084;52.046;5.632;2022-12-29T04:00:00;99750;;;11.1;78.2
69405;BME280;57084;52.046;5.632;2022-12-29T04:01:00;99760;;;11.1;78.2
69405;BME280;57084;52.046;5.632;2022-12-29T04:02:00;99760;;;11.1;78.2
69405;BME280;57084;52.046;5.632;2022-12-29T04:03:00;99760;;;11.1;78.1
69405;BME280;57084;52.046;5.632;2022-12-29T04:04:00;99760;;;11.1;78.1
69405;BME280;57084;52.046;5.632;2022-12-29T04:05:00;99760;;;11.1;78.2
69405;BME280;57084;52.046;5.632;2022-12-29T04:06:00;99760;;;11.1;78.2
69405;BME280;57084;52.046;5.632;2022-12-29T04:07:00;99750;;;11.1;78.2
69405;BME280;57084;52.046;5.632;2022-12-29T04:08:00;99750;;;11.1;78.2
69405;BME280;57084;52.046;5.632;2022-12-29T04:09:00;99750;;;11.1;78.2
69405;BME280;57084;52.046;5.632;2022-12-29T04:10:00;99750;;;11.1;78.2
69405;BME280;57084;52.046;5.632;2022-12-29T04:11:00;99760;;;11.0;78.2
69405;BME280;57084;52.046;5.632;2022-12-29T04:12:00;99760;;;11.0;78.2
69405;BME280;57084;52.046;5.632;2022-12-29T04:13:00;99760;;;11.1;78.1
69405;BME280;57084;52.046;5.632;2022-12-29T04:14:00;99760;;;11.1;78.1
69405;BME280;57084;52.046;5.632;2022-12-29T04:15:00;99760;;;11.0;78.2
69405;BME280;57084;52.046;5.632;2022-12-29T04:16:00;99760;;;11.0;78.2
69405;BME280;57084;52.046;5.632;2022-12-29T04:17:00;99760;;;11.0;78.2
69405;BME280;57084;52.046;5.632;2022-12-29T04:18:00;99760;;;11.0;78.2
69405;BME280;57084;52.046;5.632;2022-12-29T04:19:00;99750;;;11.0;78.1
69405;BME280;57084;52.046;5.632;2022-12-29T04:20:00;99750;;;11.0;78.1
69405;BME280;57084;52.046;5.632;2022-12-29T04:21:00;99760;;;11.0;78.1
69405;BME280;57084;52.046;5.632;2022-12-29T04:22:00;99760;;;11.0;78.1
69405;BME280;57084;52.046;5.632;2022-12-29T04:23:00;99760;;;11.0;78.1
69405;BME280;57084;52.046;5.632;2022-12-29T04:24:00;99760;;;11.0;78.1
69405;BME280;57084;52.046;5.632;2022-12-29T04:25:00;99760;;;11.0;78.1
69405;BME280;57084;52.046;5.632;2022-12-29T04:26:00;99760;;;11.0;78.1
69405;BME280;57084;52.046;5.632;2022-12-29T04:27:00;99760;;;11.0;78.1
69405;BME280;57084;52.046;5.632;2022-12-29T04:28:00;99760;;;11.0;78.1
69405;BME280;57084;52.046;5.632;2022-12-29T04:29:00;99760;;;11.0;78.1
69405;BME280;57084;52.046;5.632;2022-12-29T04:30:00;99760;;;11.0;78.1
69405;BME280;57084;52.046;5.632;2022-12-29T04:31:00;99760;;;11.0;78.1
69405;BME280;57084;52.046;5.632;2022-12-29T04:32:00;99760;;;11.0;78.1
69405;BME280;57084;52.046;5.632;2022-12-29T04:33:00;99760;;;11.0;78.0
69405;BME280;57084;52.046;5.632;2022-12-29T04:34:00;99760;;;11.0;78.0
69405;BME280;57084;52.046;5.632;2022-12-29T04:35:00;99770;;;11.0;78.0
69405;BME280;57084;52.046;5.632;2022-12-29T04:36:00;99770;;;11.0;78.0
69405;BME280;57084;52.046;5.632;2022-12-29T04:37:00;99780;;;11.0;78.0
69405;BME280;57084;52.046;5.632;2022-12-29T04:38:00;99780;;;11.0;78.0
69405;BME280;57084;52.046;5.632;2022-12-29T04:39:00;99790;;;11.0;77.9
69405;BME280;57084;52.046;5.632;2022-12-29T04:40:00;99790;;;11.0;77.9
69405;BME280;57084;52.046;5.632;2022-12-29T04:41:00;99800;;;11.0;77.9
69405;BME280;57084;52.046;5.632;2022-12-29T04:42:00;99800;;;11.0;77.9
69405;BME280;57084;52.046;5.632;2022-12-29T04:43:00;99800;;;11.0;77.9
69405;BME280;57084;52.046;5.632;2022-12-29T04:44:00;99800;;;11.0;77.9
69405;BME280;57084;52.046;5.632;2022-12-29T04:45:00;99790;;;11.0;77.8
69405;BME280;57084;52.046;5.632;2022-12-29T04:46:00;99790;;;11.0;77.8
69405;BME280;57084;52.046;5.632;2022-12-29T04:47:00;99800;;;11.0;77.8
69405;BME280;57084;52.046;5.632;2022-12-29T04:48:00;99800;;;11.0;77.8
69405;BME280;57084;52.046;5.632;2022-12-29T04:49:00;99800;;;11.0;77.7
69405;BME280;57084;52.046;5.632;2022-12-29T04:50:00;99800;;;11.0;77.7
69405;BME280;57084;52.046;5.632;2022-12-29T04:51:00;99800;;;11.0;77.7
69405;BME280;57084;52.046;5.632;2022-12-29T04:52:00;99800;;;11.0;77.7
69405;BME280;57084;52.046;5.632;2022-12-29T04:53:00;99810;;;11.0;77.6
69405;BME280;57084;52.046;5.632;2022-12-29T04:54:00;99810;;;11.0;77.6
69405;BME280;57084;52.046;5.632;2022-12-29T04:55:00;99820;;;11.0;77.6
69405;BME280;57084;52.046;5.632;2022-12-29T04:56:00;99820;;;11.0;77.6
69405;BME280;57084;52.046;5.632;2022-12-29T04:57:00;99820;;;11.0;77.5
69405;BME280;57084;52.046;5.632;2022-12-29T04:58:00;99820;;;11.0;77.5
69405;BME280;57084;52.046;5.632;2022-12-29T04:59:00;99820;;;11.0;77.4
69405;BME280;57084;52.046;5.632;2022-12-29T05:00:00;99820;;;11.0;77.4
69405;BME280;57084;52.046;5.632;2022-12-29T05:01:00;99820;;;11.0;77.4
69405;BME280;57084;52.046;5.632;2022-12-29T05:02:00;99820;;;11.0;77.4
69405;BME280;57084;52.046;5.632;2022-12-29T05:03:00;99820;;;11.0;77.4
69405;BME280;57084;52.046;5.632;2022-12-29T05:04:00;99820;;;11.0;77.4
69405;BME280;57084;52.046;5.632;2022-12-29T05:05:00;99820;;;11.0;77.3
69405;BME280;57084;52.046;5.632;2022-12-29T05:06:00;99820;;;11.0;77.3
69405;BME280;57084;52.046;5.632;2022-12-29T05:07:00;99820;;;11.0;77.3
69405;BME280;57084;52.046;5.632;2022-12-29T05:08:00;99820;;;11.0;77.3
69405;BME280;57084;52.046;5.632;2022-12-29T05:09:00;99820;;;11.0;77.2
69405;BME280;57084;52.046;5.632;2022-12-29T05:10:00;99820;;;11.0;77.2
69405;BME280;57084;52.046;5.632;2022-12-29T05:11:00;99810;;;11.0;77.2
69405;BME280;57084;52.046;5.632;2022-12-29T05:12:00;99810;;;11.0;77.2
69405;BME280;57084;52.046;5.632;2022-12-29T05:13:00;99830;;;10.9;77.2
69405;BME280;57084;52.046;5.632;2022-12-29T05:14:00;99830;;;10.9;77.2
69405;BME280;57084;52.046;5.632;2022-12-29T05:15:00;99820;;;10.9;77.1
69405;BME280;57084;52.046;5.632;2022-12-29T05:16:00;99820;;;10.9;77.1
69405;BME280;57084;52.046;5.632;2022-12-29T05:17:00;99830;;;10.9;77.1
69405;BME280;57084;52.046;5.632;2022-12-29T05:18:00;99830;;;10.9;77.1
69405;BME280;57084;52.046;5.632;2022-12-29T05:19:00;99840;;;10.9;76.9
69405;BME280;57084;52.046;5.632;2022-12-29T05:20:00;99840;;;10.9;76.9
69405;BME280;57084;52.046;5.632;2022-12-29T05:21:00;99830;;;10.9;76.9
69405;BME280;57084;52.046;5.632;2022-12-29T05:22:00;99830;;;10.9;76.9
69405;BME280;57084;52.046;5.632;2022-12-29T05:23:00;99830;;;10.9;76.9
69405;BME280;57084;52.046;5.632;2022-12-29T05:24:00;99830;;;10.9;76.9
69405;BME280;57084;52.046;5.632;2022-12-29T05:25:00;99830;;;10.9;76.8
69405;BME280;57084;52.046;5.632;2022-12-29T05:26:00;99830;;;10.9;76.8
69405;BME280;57084;52.046;5.632;2022-12-29T05:27:00;99830;;;10.9;76.8
69405;BME280;57084;52.046;5.632;2022-12-29T05:28:00;99830;;;10.9;76.8
69405;BME280;57084;52.046;5.632;2022-12-29T05:29:00;99830;;;10.9;76.7
69405;BME280;57084;52.046;5.632;2022-12-29T05:30:00;99830;;;10.9;76.7
69405;BME280;57084;52.046;5.632;2022-12-29T05:31:00;99830;;;10.9;76.7
69405;BME280;57084;52.046;5.632;2022-12-29T05:32:00;99830;;;10.9;76.7
69405;BME280;57084;52.046;5.632;2022-12-29T05:33:00;99840;;;10.9;76.7
69405;BME280;57084;52.046;5.632;2022-12-29T05:34:00;99840;;;10.9;76.7
69405;BME280;57084;52.046;5.632;2022-12-29T05:35:00;99840;;;10.9;76.5
69405;BME280;57084;52.046;5.632;2022-12-29T05:36:03;99840;;;10.9;76.5
69405;BME280;57084;52.046;5.632;2022-12-29T05:37:00;99840;;;10.9;76.5
69405;BME280;57084;52.046;5.632;2022-12-29T05:38:00;99840;;;10.9;76.5
69405;BME280;57084;52.046;5.632;2022-12-29T05:39:00;99850;;;10.9;76.3
69405;BME280;57084;52.046;5.632;2022-12-29T05:40:00;99850;;;10.9;76.3
69405;BME280;57084;52.046;5.632;2022-12-29T05:41:00;99840;;;10.9;76.4
69405;BME280;57084;52.046;5.632;2022-12-29T05:42:00;99840;;;10.9;76.4